sensor_id;sensor_type;location;lat;lon;timestamp;temperature;humidity
27026;DHT22;14565;48.626;8.978;2023-05-07T00:00:38;12.00;99.90
27026;DHT22;14565;48.626;8.978;2023-05-07T00:03:03;12.00;99.90
27026;DHT22;14565;48.626;8.978;2023-05-07T00:05:29;12.00;99.90
27026;DHT22;14565;48.626;8.978;2023-05-07T00:07:55;12.00;99.90
27026;DHT22;14565;48.626;8.978;2023-05-07T00:10:21;11.90;99.90
27026;DHT22;14565;48.626;8.978;2023-05-07T00:12:46;12.00;99.90
27026;DHT22;14565;48.626;8.978;2023-05-07T00:15:12;12.00;99.90
27026;DHT22;14565;48.626;8.978;2023-05-07T00:17:38;11.90;99.90
27026;DHT22;14565;48.626;8.978;2023-05-07T00:20:04;11.90;99.90
27026;DHT22;14565;48.626;8.978;2023-05-07T00:22:31;11.90;99.90
27026;DHT22;14565;48.626;8.978;2023-05-07T00:24:57;11.90;99.90
27026;DHT22;14565;48.626;8.978;2023-05-07T00:27:24;11.80;99.90
27026;DHT22;14565;48.626;8.978;2023-05-07T00:29:49;11.60;99.90
27026;DHT22;14565;48.626;8.978;2023-05-07T00:32:15;11.60;99.90
27026;DHT22;14565;48.626;8.978;2023-05-07T00:34:41;11.80;99.90
27026;DHT22;14565;48.626;8.978;2023-05-07T00:37:06;11.80;99.90
27026;DHT22;14565;48.626;8.978;2023-05-07T00:39:35;11.80;99.90
27026;DHT22;14565;48.626;8.978;2023-05-07T00:42:01;11.80;99.90
27026;DHT22;14565;48.626;8.978;2023-05-07T00:44:28;11.70;99.90
27026;DHT22;14565;48.626;8.978;2023-05-07T00:46:54;11.60;99.90
27026;DHT22;14565;48.626;8.978;2023-05-07T00:49:20;11.60;99.90
27026;DHT22;14565;48.626;8.978;2023-05-07T00:51:46;11.70;99.90
27026;DHT22;14565;48.626;8.978;2023-05-07T00:54:13;11.70;99.90
27026;DHT22;14565;48.626;8.978;2023-05-07T00:56:39;11.70;99.90
27026;DHT22;14565;48.626;8.978;2023-05-07T00:59:05;11.70;99.90
27026;DHT22;14565;48.626;8.978;2023-05-07T01:01:32;11.70;99.90
27026;DHT22;14565;48.626;8.978;2023-05-07T01:03:57;11.80;99.90
27026;DHT22;14565;48.626;8.978;2023-05-07T01:06:24;11.70;99.90
27026;DHT22;14565;48.626;8.978;2023-05-07T01:08:53;11.70;99.90
27026;DHT22;14565;48.626;8.978;2023-05-07T01:11:22;11.70;99.90
27026;DHT22;14565;48.626;8.978;2023-05-07T01:13:54;11.60;99.90
27026;DHT22;14565;48.626;8.978;2023-05-07T01:16:20;11.60;99.90
27026;DHT22;14565;48.626;8.978;2023-05-07T01:18:47;11.60;99.90
27026;DHT22;14565;48.626;8.978;2023-05-07T01:21:15;11.60;99.90
27026;DHT22;14565;48.626;8.978;2023-05-07T01:23:42;11.60;99.90
27026;DHT22;14565;48.626;8.978;2023-05-07T01:26:08;11.60;99.90
27026;DHT22;14565;48.626;8.978;2023-05-07T01:28:33;11.50;99.90
27026;DHT22;14565;48.626;8.978;2023-05-07T01:31:03;11.50;99.90
27026;DHT22;14565;48.626;8.978;2023-05-07T01:33:33;11.50;99.90
27026;DHT22;14565;48.626;8.978;2023-05-07T01:36:00;11.60;99.90
27026;DHT22;14565;48.626;8.978;2023-05-07T01:38:29;11.60;99.90
27026;DHT22;14565;48.626;8.978;2023-05-07T01:40:55;11.60;99.90
27026;DHT22;14565;48.626;8.978;2023-05-07T01:43:21;11.60;99.90
27026;DHT22;14565;48.626;8.978;2023-05-07T01:45:48;11.60;99.90
27026;DHT22;14565;48.626;8.978;2023-05-07T01:48:15;11.60;99.90
27026;DHT22;14565;48.626;8.978;2023-05-07T01:50:42;11.60;99.90
27026;DHT22;14565;48.626;8.978;2023-05-07T01:53:08;11.60;99.90
27026;DHT22;14565;48.626;8.978;2023-05-07T01:55:34;11.50;99.90
27026;DHT22;14565;48.626;8.978;2023-05-07T01:57:59;11.40;99.90
27026;DHT22;14565;48.626;8.978;2023-05-07T02:00:25;11.30;99.90
27026;DHT22;14565;48.626;8.978;2023-05-07T02:02:51;11.30;99.90
27026;DHT22;14565;48.626;8.978;2023-05-07T02:05:18;11.20;99.90
27026;DHT22;14565;48.626;8.978;2023-05-07T02:07:43;11.20;99.90
27026;DHT22;14565;48.626;8.978;2023-05-07T02:10:09;11.30;99.90
27026;DHT22;14565;48.626;8.978;2023-05-07T02:12:35;11.00;99.90
27026;DHT22;14565;48.626;8.978;2023-05-07T02:15:01;10.70;99.90
27026;DHT22;14565;48.626;8.978;2023-05-07T02:17:27;10.60;99.90
27026;DHT22;14565;48.626;8.978;2023-05-07T02:19:57;10.70;99.90
27026;DHT22;14565;48.626;8.978;2023-05-07T02:22:22;10.80;99.90
27026;DHT22;14565;48.626;8.978;2023-05-07T02:24:48;10.90;99.90
27026;DHT22;14565;48.626;8.978;2023-05-07T02:27:14;11.00;99.90
27026;DHT22;14565;48.626;8.978;2023-05-07T02:29:40;11.00;99.90
27026;DHT22;14565;48.626;8.978;2023-05-07T02:32:06;11.00;99.90
27026;DHT22;14565;48.626;8.978;2023-05-07T02:34:31;10.80;99.90
27026;DHT22;14565;48.626;8.978;2023-05-07T02:36:57;10.80;99.90
27026;DHT22;14565;48.626;8.978;2023-05-07T02:39:23;10.80;99.90
27026;DHT22;14565;48.626;8.978;2023-05-07T02:41:48;10.80;99.90
27026;DHT22;14565;48.626;8.978;2023-05-07T02:44:14;10.90;99.90
27026;DHT22;14565;48.626;8.978;2023-05-07T02:46:40;10.80;99.90
27026;DHT22;14565;48.626;8.978;2023-05-07T02:49:05;10.80;99.90
27026;DHT22;14565;48.626;8.978;2023-05-07T02:51:31;10.80;99.90
27026;DHT22;14565;48.626;8.978;2023-05-07T02:53:57;10.80;99.90
27026;DHT22;14565;48.626;8.978;2023-05-07T02:56:23;10.80;99.90
27026;DHT22;14565;48.626;8.978;2023-05-07T02:58:48;10.80;99.90
27026;DHT22;14565;48.626;8.978;2023-05-07T03:01:14;10.80;99.90
27026;DHT22;14565;48.626;8.978;2023-05-07T03:03:40;10.80;99.90
27026;DHT22;14565;48.626;8.978;2023-05-07T03:06:06;10.80;99.90
27026;DHT22;14565;48.626;8.978;2023-05-07T03:08:32;10.70;99.90
27026;DHT22;14565;48.626;8.978;2023-05-07T03:10:58;10.70;99.90
27026;DHT22;14565;48.626;8.978;2023-05-07T03:13:24;10.70;99.90
27026;DHT22;14565;48.626;8.978;2023-05-07T03:15:49;10.60;99.90
27026;DHT22;14565;48.626;8.978;2023-05-07T03:18:15;10.60;99.90
27026;DHT22;14565;48.626;8.978;2023-05-07T03:20:41;10.50;99.90
27026;DHT22;14565;48.626;8.978;2023-05-07T03:23:06;10.40;99.90
27026;DHT22;14565;48.626;8.978;2023-05-07T03:25:32;10.40;99.90
27026;DHT22;14565;48.626;8.978;2023-05-07T03:27:58;10.30;99.90
27026;DHT22;14565;48.626;8.978;2023-05-07T03:30:24;10.30;99.90
27026;DHT22;14565;48.626;8.978;2023-05-07T03:32:50;10.30;99.90
27026;DHT22;14565;48.626;8.978;2023-05-07T03:35:16;10.30;99.90
27026;DHT22;14565;48.626;8.978;2023-05-07T03:37:42;10.30;99.90
27026;DHT22;14565;48.626;8.978;2023-05-07T03:40:08;10.40;99.90
27026;DHT22;14565;48.626;8.978;2023-05-07T03:42:35;10.40;99.90
27026;DHT22;14565;48.626;8.978;2023-05-07T03:45:01;10.40;99.90
27026;DHT22;14565;48.626;8.978;2023-05-07T03:47:27;10.40;99.90
27026;DHT22;14565;48.626;8.978;2023-05-07T03:49:52;10.40;99.90
27026;DHT22;14565;48.626;8.978;2023-05-07T03:52:19;10.40;99.90
27026;DHT22;14565;48.626;8.978;2023-05-07T03:54:49;10.30;99.90
27026;DHT22;14565;48.626;8.978;2023-05-07T03:57:15;10.20;99.90
27026;DHT22;14565;48.626;8.978;2023-05-07T03:59:41;10.10;99.90
27026;DHT22;14565;48.626;8.978;2023-05-07T04:02:06;10.20;99.90
27026;DHT22;14565;48.626;8.978;2023-05-07T04:04:32;10.10;99.90
27026;DHT22;14565;48.626;8.978;2023-05-07T04:06:58;10.10;99.90
27026;DHT22;14565;48.626;8.978;2023-05-07T04:09:24;10.10;99.90
27026;DHT22;14565;48.626;8.978;2023-05-07T04:11:51;10.10;99.90
27026;DHT22;14565;48.626;8.978;2023-05-07T04:14:16;10.10;99.90
27026;DHT22;14565;48.626;8.978;2023-05-07T04:16:42;10.20;99.90
27026;DHT22;14565;48.626;8.978;2023-05-07T04:19:08;10.30;99.90
27026;DHT22;14565;48.626;8.978;2023-05-07T04:21:33;10.30;99.90
27026;DHT22;14565;48.626;8.978;2023-05-07T04:23:59;10.20;99.90
27026;DHT22;14565;48.626;8.978;2023-05-07T04:26:25;10.00;99.90
27026;DHT22;14565;48.626;8.978;2023-05-07T04:28:50;10.00;99.90
27026;DHT22;14565;48.626;8.978;2023-05-07T04:31:16;10.00;99.90
27026;DHT22;14565;48.626;8.978;2023-05-07T04:33:42;10.00;99.90
27026;DHT22;14565;48.626;8.978;2023-05-07T04:36:07;10.10;99.90
27026;DHT22;14565;48.626;8.978;2023-05-07T04:38:33;10.20;99.90
27026;DHT22;14565;48.626;8.978;2023-05-07T04:41:06;9.90;99.90
27026;DHT22;14565;48.626;8.978;2023-05-07T04:43:31;9.90;99.90
27026;DHT22;14565;48.626;8.978;2023-05-07T04:45:57;10.10;99.90
27026;DHT22;14565;48.626;8.978;2023-05-07T04:48:23;10.20;99.90
27026;DHT22;14565;48.626;8.978;2023-05-07T04:50:52;10.20;99.90
27026;DHT22;14565;48.626;8.978;2023-05-07T04:53:18;10.30;99.90
27026;DHT22;14565;48.626;8.978;2023-05-07T04:55:44;10.40;99.90
27026;DHT22;14565;48.626;8.978;2023-05-07T04:58:11;10.50;99.90
27026;DHT22;14565;48.626;8.978;2023-05-07T05:00:37;10.40;99.90
27026;DHT22;14565;48.626;8.978;2023-05-07T05:03:04;10.50;99.90
27026;DHT22;14565;48.626;8.978;2023-05-07T05:05:30;10.70;99.90
27026;DHT22;14565;48.626;8.978;2023-05-07T05:07:56;11.00;99.90
27026;DHT22;14565;48.626;8.978;2023-05-07T05:10:22;11.20;99.90
27026;DHT22;14565;48.626;8.978;2023-05-07T05:12:48;11.20;99.90
27026;DHT22;14565;48.626;8.978;2023-05-07T05:15:13;11.40;99.90
27026;DHT22;14565;48.626;8.978;2023-05-07T05:17:39;11.50;99.90
27026;DHT22;14565;48.626;8.978;2023-05-07T05:20:05;11.70;99.90
27026;DHT22;14565;48.626;8.978;2023-05-07T05:22:32;11.90;99.90
27026;DHT22;14565;48.626;8.978;2023-05-07T05:24:58;12.00;99.90
27026;DHT22;14565;48.626;8.978;2023-05-07T05:27:23;12.30;99.90
27026;DHT22;14565;48.626;8.978;2023-05-07T05:29:49;12.40;99.90
27026;DHT22;14565;48.626;8.978;2023-05-07T05:32:15;12.50;99.90
27026;DHT22;14565;48.626;8.978;2023-05-07T05:34:41;12.50;99.90
27026;DHT22;14565;48.626;8.978;2023-05-07T05:37:06;12.60;99.90
27026;DHT22;14565;48.626;8.978;2023-05-07T05:39:32;13.20;99.90
27026;DHT22;14565;48.626;8.978;2023-05-07T05:41:58;12.90;99.90
27026;DHT22;14565;48.626;8.978;2023-05-07T05:44:23;12.60;99.90
27026;DHT22;14565;48.626;8.978;2023-05-07T05:46:49;12.50;99.90
27026;DHT22;14565;48.626;8.978;2023-05-07T05:49:15;12.50;99.90
27026;DHT22;14565;48.626;8.978;2023-05-07T05:55:22;12.90;99.90
27026;DHT22;14565;48.626;8.978;2023-05-07T05:57:58;14.00;99.90
27026;DHT22;14565;48.626;8.978;2023-05-07T06:00:38;15.70;99.90
27026;DHT22;14565;48.626;8.978;2023-05-07T06:03:26;17.60;99.90
27026;DHT22;14565;48.626;8.978;2023-05-07T06:05:52;18.20;99.90
27026;DHT22;14565;48.626;8.978;2023-05-07T06:08:18;18.90;99.90
27026;DHT22;14565;48.626;8.978;2023-05-07T06:10:49;20.90;99.90
27026;DHT22;14565;48.626;8.978;2023-05-07T06:13:24;18.30;99.90
27026;DHT22;14565;48.626;8.978;2023-05-07T06:15:56;17.20;99.90
27026;DHT22;14565;48.626;8.978;2023-05-07T06:18:22;17.00;99.90
27026;DHT22;14565;48.626;8.978;2023-05-07T06:20:47;18.80;99.90
27026;DHT22;14565;48.626;8.978;2023-05-07T06:23:17;19.50;99.90
27026;DHT22;14565;48.626;8.978;2023-05-07T06:25:48;23.20;99.90
27026;DHT22;14565;48.626;8.978;2023-05-07T06:28:14;23.70;99.90
27026;DHT22;14565;48.626;8.978;2023-05-07T06:30:39;25.80;97.20
27026;DHT22;14565;48.626;8.978;2023-05-07T06:33:05;23.70;99.50
27026;DHT22;14565;48.626;8.978;2023-05-07T06:35:31;24.20;99.30
27026;DHT22;14565;48.626;8.978;2023-05-07T06:37:57;21.80;99.90
27026;DHT22;14565;48.626;8.978;2023-05-07T06:40:23;22.40;99.90
27026;DHT22;14565;48.626;8.978;2023-05-07T06:42:48;22.20;99.90
27026;DHT22;14565;48.626;8.978;2023-05-07T06:45:14;25.30;98.10
27026;DHT22;14565;48.626;8.978;2023-05-07T06:47:40;25.60;97.40
27026;DHT22;14565;48.626;8.978;2023-05-07T06:50:06;23.90;99.90
27026;DHT22;14565;48.626;8.978;2023-05-07T06:52:32;21.70;99.90
27026;DHT22;14565;48.626;8.978;2023-05-07T06:54:59;21.80;99.90
27026;DHT22;14565;48.626;8.978;2023-05-07T06:57:25;22.50;99.90
27026;DHT22;14565;48.626;8.978;2023-05-07T06:59:51;22.00;99.90
27026;DHT22;14565;48.626;8.978;2023-05-07T07:02:17;22.10;99.90
27026;DHT22;14565;48.626;8.978;2023-05-07T07:04:42;21.70;99.90
27026;DHT22;14565;48.626;8.978;2023-05-07T07:07:08;21.70;99.90
27026;DHT22;14565;48.626;8.978;2023-05-07T07:09:34;20.60;99.90
27026;DHT22;14565;48.626;8.978;2023-05-07T07:12:00;20.80;99.90
27026;DHT22;14565;48.626;8.978;2023-05-07T07:14:25;20.40;99.90
27026;DHT22;14565;48.626;8.978;2023-05-07T07:16:58;20.50;99.90
27026;DHT22;14565;48.626;8.978;2023-05-07T07:19:27;21.60;99.90
27026;DHT22;14565;48.626;8.978;2023-05-07T07:21:53;22.50;99.90
27026;DHT22;14565;48.626;8.978;2023-05-07T07:24:19;21.00;99.90
27026;DHT22;14565;48.626;8.978;2023-05-07T07:26:46;21.40;99.90
27026;DHT22;14565;48.626;8.978;2023-05-07T07:29:13;22.10;99.90
27026;DHT22;14565;48.626;8.978;2023-05-07T07:31:39;23.90;99.90
27026;DHT22;14565;48.626;8.978;2023-05-07T07:34:04;23.50;99.90
27026;DHT22;14565;48.626;8.978;2023-05-07T07:36:30;21.70;99.90
27026;DHT22;14565;48.626;8.978;2023-05-07T07:38:56;21.00;99.90
27026;DHT22;14565;48.626;8.978;2023-05-07T07:41:22;21.40;99.90
27026;DHT22;14565;48.626;8.978;2023-05-07T07:43:48;22.10;99.90
27026;DHT22;14565;48.626;8.978;2023-05-07T07:46:14;23.00;99.90
27026;DHT22;14565;48.626;8.978;2023-05-07T07:48:47;24.70;99.90
27026;DHT22;14565;48.626;8.978;2023-05-07T07:51:13;25.80;98.70
27026;DHT22;14565;48.626;8.978;2023-05-07T07:53:38;24.60;99.90
27026;DHT22;14565;48.626;8.978;2023-05-07T07:56:05;24.60;99.80
27026;DHT22;14565;48.626;8.978;2023-05-07T07:58:33;24.90;99.00
27026;DHT22;14565;48.626;8.978;2023-05-07T08:01:21;24.30;98.20
27026;DHT22;14565;48.626;8.978;2023-05-07T08:03:54;22.70;99.90
27026;DHT22;14565;48.626;8.978;2023-05-07T08:06:22;22.30;99.90
27026;DHT22;14565;48.626;8.978;2023-05-07T08:09:23;21.80;99.90
27026;DHT22;14565;48.626;8.978;2023-05-07T08:11:54;20.70;99.90
27026;DHT22;14565;48.626;8.978;2023-05-07T08:14:26;19.60;99.90
27026;DHT22;14565;48.626;8.978;2023-05-07T08:16:53;19.80;99.90
27026;DHT22;14565;48.626;8.978;2023-05-07T08:19:20;19.70;99.90
27026;DHT22;14565;48.626;8.978;2023-05-07T08:21:46;19.90;99.90
27026;DHT22;14565;48.626;8.978;2023-05-07T08:24:16;21.20;99.90
27026;DHT22;14565;48.626;8.978;2023-05-07T08:26:43;21.50;99.90
27026;DHT22;14565;48.626;8.978;2023-05-07T08:29:09;22.10;99.90
27026;DHT22;14565;48.626;8.978;2023-05-07T08:31:42;22.60;99.90
27026;DHT22;14565;48.626;8.978;2023-05-07T08:34:08;22.30;99.90
27026;DHT22;14565;48.626;8.978;2023-05-07T08:36:34;22.90;99.90
27026;DHT22;14565;48.626;8.978;2023-05-07T08:39:00;23.20;99.90
27026;DHT22;14565;48.626;8.978;2023-05-07T08:41:31;22.20;99.90
27026;DHT22;14565;48.626;8.978;2023-05-07T08:43:58;21.50;99.90
27026;DHT22;14565;48.626;8.978;2023-05-07T08:46:39;21.50;99.90
27026;DHT22;14565;48.626;8.978;2023-05-07T08:49:05;22.10;99.90
27026;DHT22;14565;48.626;8.978;2023-05-07T08:51:31;22.70;99.90
27026;DHT22;14565;48.626;8.978;2023-05-07T08:53:59;21.20;99.90
27026;DHT22;14565;48.626;8.978;2023-05-07T08:56:38;21.70;99.90
27026;DHT22;14565;48.626;8.978;2023-05-07T08:59:10;22.00;99.90
27026;DHT22;14565;48.626;8.978;2023-05-07T09:01:38;22.10;99.90
27026;DHT22;14565;48.626;8.978;2023-05-07T09:04:10;21.30;99.90
27026;DHT22;14565;48.626;8.978;2023-05-07T09:06:36;21.90;99.90
27026;DHT22;14565;48.626;8.978;2023-05-07T09:09:03;22.60;99.90
27026;DHT22;14565;48.626;8.978;2023-05-07T09:11:30;21.90;99.90
27026;DHT22;14565;48.626;8.978;2023-05-07T09:13:57;21.90;99.90
27026;DHT22;14565;48.626;8.978;2023-05-07T09:16:29;22.80;99.90
27026;DHT22;14565;48.626;8.978;2023-05-07T09:18:59;23.40;99.90
27026;DHT22;14565;48.626;8.978;2023-05-07T09:21:38;23.30;99.90
27026;DHT22;14565;48.626;8.978;2023-05-07T09:24:15;23.40;99.90
27026;DHT22;14565;48.626;8.978;2023-05-07T09:26:57;23.60;99.90
27026;DHT22;14565;48.626;8.978;2023-05-07T09:29:35;22.70;99.90
27026;DHT22;14565;48.626;8.978;2023-05-07T09:32:24;22.30;99.90
27026;DHT22;14565;48.626;8.978;2023-05-07T09:35:23;22.50;99.90
27026;DHT22;14565;48.626;8.978;2023-05-07T09:38:36;22.30;99.90
27026;DHT22;14565;48.626;8.978;2023-05-07T09:41:51;21.40;99.90
27026;DHT22;14565;48.626;8.978;2023-05-07T09:45:03;22.00;99.90
27026;DHT22;14565;48.626;8.978;2023-05-07T09:47:58;22.20;99.90
27026;DHT22;14565;48.626;8.978;2023-05-07T09:50:51;22.30;99.90
27026;DHT22;14565;48.626;8.978;2023-05-07T09:59:23;22.00;99.90
27026;DHT22;14565;48.626;8.978;2023-05-07T10:02:09;21.50;99.90
27026;DHT22;14565;48.626;8.978;2023-05-07T10:04:53;21.70;99.90
27026;DHT22;14565;48.626;8.978;2023-05-07T10:07:37;22.00;99.90
27026;DHT22;14565;48.626;8.978;2023-05-07T10:10:50;21.10;99.90
27026;DHT22;14565;48.626;8.978;2023-05-07T10:13:27;21.70;99.90
27026;DHT22;14565;48.626;8.978;2023-05-07T10:16:23;22.30;99.90
27026;DHT22;14565;48.626;8.978;2023-05-07T10:19:19;22.60;99.90
27026;DHT22;14565;48.626;8.978;2023-05-07T10:22:11;22.80;99.90
27026;DHT22;14565;48.626;8.978;2023-05-07T10:24:42;22.50;99.90
27026;DHT22;14565;48.626;8.978;2023-05-07T10:27:30;22.10;99.90
27026;DHT22;14565;48.626;8.978;2023-05-07T10:36:09;21.90;99.90
27026;DHT22;14565;48.626;8.978;2023-05-07T10:39:06;21.80;99.90
27026;DHT22;14565;48.626;8.978;2023-05-07T10:44:48;21.90;99.90
27026;DHT22;14565;48.626;8.978;2023-05-07T10:47:30;22.30;99.90
27026;DHT22;14565;48.626;8.978;2023-05-07T10:56:32;21.50;99.90
27026;DHT22;14565;48.626;8.978;2023-05-07T11:05:50;21.70;99.90
27026;DHT22;14565;48.626;8.978;2023-05-07T11:11:01;22.30;99.90
27026;DHT22;14565;48.626;8.978;2023-05-07T11:14:04;22.90;99.90
27026;DHT22;14565;48.626;8.978;2023-05-07T11:16:38;22.60;99.90
27026;DHT22;14565;48.626;8.978;2023-05-07T11:26:27;22.50;99.90
27026;DHT22;14565;48.626;8.978;2023-05-07T11:29:08;22.70;99.90
27026;DHT22;14565;48.626;8.978;2023-05-07T11:31:54;22.50;99.90
27026;DHT22;14565;48.626;8.978;2023-05-07T11:34:43;22.40;99.90
27026;DHT22;14565;48.626;8.978;2023-05-07T11:37:17;23.00;99.90
27026;DHT22;14565;48.626;8.978;2023-05-07T11:39:43;22.50;99.90
27026;DHT22;14565;48.626;8.978;2023-05-07T11:42:30;23.00;99.90
27026;DHT22;14565;48.626;8.978;2023-05-07T11:44:59;23.20;99.90
27026;DHT22;14565;48.626;8.978;2023-05-07T11:47:50;23.10;99.90
27026;DHT22;14565;48.626;8.978;2023-05-07T11:50:34;22.90;99.90
27026;DHT22;14565;48.626;8.978;2023-05-07T11:53:06;22.80;99.90
27026;DHT22;14565;48.626;8.978;2023-05-07T11:55:42;22.40;99.90
27026;DHT22;14565;48.626;8.978;2023-05-07T11:58:13;22.10;99.90
27026;DHT22;14565;48.626;8.978;2023-05-07T12:01:11;21.50;99.90
27026;DHT22;14565;48.626;8.978;2023-05-07T12:04:13;21.20;99.90
27026;DHT22;14565;48.626;8.978;2023-05-07T12:06:44;20.90;99.90
27026;DHT22;14565;48.626;8.978;2023-05-07T12:12:22;20.00;99.90
27026;DHT22;14565;48.626;8.978;2023-05-07T12:21:39;18.70;99.90
27026;DHT22;14565;48.626;8.978;2023-05-07T12:37:40;14.30;99.90
27026;DHT22;14565;48.626;8.978;2023-05-07T12:44:26;13.70;99.90
27026;DHT22;14565;48.626;8.978;2023-05-07T12:47:56;13.50;99.90
27026;DHT22;14565;48.626;8.978;2023-05-07T13:07:29;13.50;99.90
27026;DHT22;14565;48.626;8.978;2023-05-07T13:10:37;13.70;99.90
27026;DHT22;14565;48.626;8.978;2023-05-07T13:13:13;13.60;99.90
27026;DHT22;14565;48.626;8.978;2023-05-07T13:15:49;14.00;99.90
27026;DHT22;14565;48.626;8.978;2023-05-07T13:18:15;14.30;99.90
27026;DHT22;14565;48.626;8.978;2023-05-07T13:20:41;14.40;99.90
27026;DHT22;14565;48.626;8.978;2023-05-07T13:23:20;14.50;99.90
27026;DHT22;14565;48.626;8.978;2023-05-07T13:25:47;14.70;99.90
27026;DHT22;14565;48.626;8.978;2023-05-07T13:28:33;14.90;99.90
27026;DHT22;14565;48.626;8.978;2023-05-07T13:31:02;15.00;99.90
27026;DHT22;14565;48.626;8.978;2023-05-07T13:33:28;15.00;99.90
27026;DHT22;14565;48.626;8.978;2023-05-07T13:35:54;14.90;99.90
27026;DHT22;14565;48.626;8.978;2023-05-07T13:38:25;14.90;99.90
27026;DHT22;14565;48.626;8.978;2023-05-07T13:40:54;14.80;99.90
27026;DHT22;14565;48.626;8.978;2023-05-07T13:43:20;14.70;99.90
27026;DHT22;14565;48.626;8.978;2023-05-07T13:45:51;14.80;99.90
27026;DHT22;14565;48.626;8.978;2023-05-07T13:48:20;14.90;99.90
27026;DHT22;14565;48.626;8.978;2023-05-07T13:50:46;14.80;99.90
27026;DHT22;14565;48.626;8.978;2023-05-07T13:53:11;14.70;99.90
27026;DHT22;14565;48.626;8.978;2023-05-07T13:55:37;14.90;99.90
27026;DHT22;14565;48.626;8.978;2023-05-07T13:58:03;14.80;99.90
27026;DHT22;14565;48.626;8.978;2023-05-07T14:00:49;14.60;99.90
27026;DHT22;14565;48.626;8.978;2023-05-07T14:03:18;14.60;99.90
27026;DHT22;14565;48.626;8.978;2023-05-07T14:05:47;14.70;99.90
27026;DHT22;14565;48.626;8.978;2023-05-07T14:08:16;14.90;99.90
27026;DHT22;14565;48.626;8.978;2023-05-07T14:10:45;15.00;99.90
27026;DHT22;14565;48.626;8.978;2023-05-07T14:13:14;14.90;99.90
27026;DHT22;14565;48.626;8.978;2023-05-07T14:15:46;14.80;99.90
27026;DHT22;14565;48.626;8.978;2023-05-07T14:18:17;14.80;99.90
27026;DHT22;14565;48.626;8.978;2023-05-07T14:20:46;14.70;99.90
27026;DHT22;14565;48.626;8.978;2023-05-07T14:23:14;14.30;99.90
27026;DHT22;14565;48.626;8.978;2023-05-07T14:25:40;14.30;99.90
27026;DHT22;14565;48.626;8.978;2023-05-07T14:28:14;14.30;99.90
27026;DHT22;14565;48.626;8.978;2023-05-07T14:30:43;14.30;99.90
27026;DHT22;14565;48.626;8.978;2023-05-07T14:33:14;14.30;99.90
27026;DHT22;14565;48.626;8.978;2023-05-07T14:35:49;14.50;99.90
27026;DHT22;14565;48.626;8.978;2023-05-07T14:38:15;14.60;99.90
27026;DHT22;14565;48.626;8.978;2023-05-07T14:40:44;14.70;99.90
27026;DHT22;14565;48.626;8.978;2023-05-07T14:43:24;14.70;99.90
27026;DHT22;14565;48.626;8.978;2023-05-07T14:45:54;14.50;99.90
27026;DHT22;14565;48.626;8.978;2023-05-07T14:48:23;14.50;99.90
27026;DHT22;14565;48.626;8.978;2023-05-07T14:50:54;14.50;99.90
27026;DHT22;14565;48.626;8.978;2023-05-07T14:53:22;14.60;99.90
27026;DHT22;14565;48.626;8.978;2023-05-07T14:55:51;14.60;99.90
27026;DHT22;14565;48.626;8.978;2023-05-07T14:58:16;14.80;99.90
27026;DHT22;14565;48.626;8.978;2023-05-07T15:00:42;15.00;99.90
27026;DHT22;14565;48.626;8.978;2023-05-07T15:03:11;15.10;99.90
27026;DHT22;14565;48.626;8.978;2023-05-07T15:05:38;14.90;99.90
27026;DHT22;14565;48.626;8.978;2023-05-07T15:08:04;15.00;99.90
27026;DHT22;14565;48.626;8.978;2023-05-07T15:10:30;14.80;99.90
27026;DHT22;14565;48.626;8.978;2023-05-07T15:12:56;15.00;99.90
27026;DHT22;14565;48.626;8.978;2023-05-07T15:15:21;15.20;99.90
27026;DHT22;14565;48.626;8.978;2023-05-07T15:17:47;15.10;99.90
27026;DHT22;14565;48.626;8.978;2023-05-07T15:20:13;14.80;99.90
27026;DHT22;14565;48.626;8.978;2023-05-07T15:22:39;14.90;99.90
27026;DHT22;14565;48.626;8.978;2023-05-07T15:25:04;15.10;99.90
27026;DHT22;14565;48.626;8.978;2023-05-07T15:27:31;15.30;99.90
27026;DHT22;14565;48.626;8.978;2023-05-07T15:29:57;15.30;99.90
27026;DHT22;14565;48.626;8.978;2023-05-07T15:32:23;15.50;99.90
27026;DHT22;14565;48.626;8.978;2023-05-07T15:34:49;15.70;99.90
27026;DHT22;14565;48.626;8.978;2023-05-07T15:37:15;15.90;99.90
27026;DHT22;14565;48.626;8.978;2023-05-07T15:39:43;15.80;99.90
27026;DHT22;14565;48.626;8.978;2023-05-07T15:42:12;16.00;99.90
27026;DHT22;14565;48.626;8.978;2023-05-07T15:44:38;16.20;99.90
27026;DHT22;14565;48.626;8.978;2023-05-07T15:47:23;16.20;99.90
27026;DHT22;14565;48.626;8.978;2023-05-07T15:49:59;16.30;99.90
27026;DHT22;14565;48.626;8.978;2023-05-07T15:52:28;16.20;99.90
27026;DHT22;14565;48.626;8.978;2023-05-07T15:55:01;16.10;99.90
27026;DHT22;14565;48.626;8.978;2023-05-07T15:57:31;16.40;99.90
27026;DHT22;14565;48.626;8.978;2023-05-07T15:59:57;16.50;99.90
27026;DHT22;14565;48.626;8.978;2023-05-07T16:02:23;16.20;99.90
27026;DHT22;14565;48.626;8.978;2023-05-07T16:04:49;16.30;99.90
27026;DHT22;14565;48.626;8.978;2023-05-07T16:07:20;16.30;99.90
27026;DHT22;14565;48.626;8.978;2023-05-07T16:09:47;16.40;99.90
27026;DHT22;14565;48.626;8.978;2023-05-07T16:12:18;16.20;99.90
27026;DHT22;14565;48.626;8.978;2023-05-07T16:14:52;16.10;99.90
27026;DHT22;14565;48.626;8.978;2023-05-07T16:17:27;16.20;99.90
27026;DHT22;14565;48.626;8.978;2023-05-07T16:19:58;16.30;99.90
27026;DHT22;14565;48.626;8.978;2023-05-07T16:22:24;16.20;99.90
27026;DHT22;14565;48.626;8.978;2023-05-07T16:24:59;15.90;99.90
27026;DHT22;14565;48.626;8.978;2023-05-07T16:27:28;15.80;99.90
27026;DHT22;14565;48.626;8.978;2023-05-07T16:29:54;15.90;99.90
27026;DHT22;14565;48.626;8.978;2023-05-07T16:32:20;15.80;99.90
27026;DHT22;14565;48.626;8.978;2023-05-07T16:34:46;15.90;99.90
27026;DHT22;14565;48.626;8.978;2023-05-07T16:37:14;16.00;99.90
27026;DHT22;14565;48.626;8.978;2023-05-07T16:39:42;16.10;99.90
27026;DHT22;14565;48.626;8.978;2023-05-07T16:42:11;16.10;99.90
27026;DHT22;14565;48.626;8.978;2023-05-07T16:44:37;15.90;99.90
27026;DHT22;14565;48.626;8.978;2023-05-07T16:47:03;15.70;99.90
27026;DHT22;14565;48.626;8.978;2023-05-07T16:49:32;15.80;99.90
27026;DHT22;14565;48.626;8.978;2023-05-07T16:51:58;15.60;99.90
27026;DHT22;14565;48.626;8.978;2023-05-07T16:54:24;15.70;99.90
27026;DHT22;14565;48.626;8.978;2023-05-07T16:56:49;15.70;99.90
27026;DHT22;14565;48.626;8.978;2023-05-07T16:59:15;15.70;99.90
27026;DHT22;14565;48.626;8.978;2023-05-07T17:01:41;15.90;99.90
27026;DHT22;14565;48.626;8.978;2023-05-07T17:04:07;15.80;99.90
27026;DHT22;14565;48.626;8.978;2023-05-07T17:06:33;15.80;99.90
27026;DHT22;14565;48.626;8.978;2023-05-07T17:08:59;15.90;99.90
27026;DHT22;14565;48.626;8.978;2023-05-07T17:11:25;15.70;99.90
27026;DHT22;14565;48.626;8.978;2023-05-07T17:13:55;15.80;99.90